JSA161 WSSS-YPDN
Flight info
| Callsign | JSA161 |
|---|---|
| Flight time | N/A |
| Altitude | 35000 |
| Route | IDBUD1A IDBUD T24 SURGA M635 BLI M766 SOTRA/N0447F370 M766 IDOTO DCT ANUPA |
| Aircraft | A320/M-SDE3FGHIRWY/LB1 |
Departure
| Time | N/A |
|---|---|
| Airport | Singapore Changi Airport (WSSS) |
Arrival
| Time | 2026-05-01 08:31 |
|---|---|
| Airport | Darwin International Airport / RAAF Darwin (YPDN) |
| Time | Latitude | Longitude | Altitude | Speed | Heading |
|---|---|---|---|---|---|
| 2026-05-01 07:23 | -10.84734 | 123.58280 | 36882 ft | 446 kts | 103° |
| 2026-05-01 07:24 | -10.86825 | 123.67502 | 36883 ft | 446 kts | 103° |
| 2026-05-01 07:24 | -10.88224 | 123.73649 | 36880 ft | 446 kts | 103° |
| 2026-05-01 07:25 | -10.89620 | 123.79796 | 36881 ft | 446 kts | 103° |
| 2026-05-01 07:25 | -10.91011 | 123.85949 | 36882 ft | 446 kts | 103° |
| 2026-05-01 07:26 | -10.92397 | 123.92107 | 36879 ft | 446 kts | 103° |
| 2026-05-01 07:26 | -10.93790 | 123.98258 | 36881 ft | 446 kts | 103° |
| 2026-05-01 07:27 | -10.95183 | 124.04406 | 36882 ft | 446 kts | 103° |
| 2026-05-01 07:27 | -10.96574 | 124.10558 | 36880 ft | 446 kts | 103° |
| 2026-05-01 07:28 | -10.97962 | 124.16713 | 36880 ft | 447 kts | 103° |
| 2026-05-01 07:28 | -10.99349 | 124.22882 | 36883 ft | 447 kts | 103° |
| 2026-05-01 07:29 | -11.00726 | 124.29007 | 36883 ft | 447 kts | 103° |
| 2026-05-01 07:29 | -11.02113 | 124.35172 | 36885 ft | 447 kts | 103° |
| 2026-05-01 07:30 | -11.03504 | 124.41335 | 36885 ft | 447 kts | 103° |
| 2026-05-01 07:30 | -11.04888 | 124.47495 | 36883 ft | 446 kts | 103° |
| 2026-05-01 07:31 | -11.06263 | 124.53659 | 36880 ft | 447 kts | 103° |
| 2026-05-01 07:32 | -11.09661 | 124.69076 | 36883 ft | 447 kts | 103° |
| 2026-05-01 07:33 | -11.11665 | 124.78347 | 36882 ft | 447 kts | 103° |
| 2026-05-01 07:33 | -11.13689 | 124.87602 | 36882 ft | 447 kts | 103° |
| 2026-05-01 07:34 | -11.15717 | 124.96861 | 36879 ft | 447 kts | 103° |
| 2026-05-01 07:35 | -11.17072 | 125.03036 | 36880 ft | 447 kts | 103° |
| 2026-05-01 07:35 | -11.18420 | 125.09218 | 36880 ft | 447 kts | 103° |
| 2026-05-01 07:36 | -11.19760 | 125.15401 | 36881 ft | 447 kts | 103° |
| 2026-05-01 07:36 | -11.21101 | 125.21590 | 36880 ft | 447 kts | 103° |
| 2026-05-01 07:37 | -11.23123 | 125.30867 | 36881 ft | 447 kts | 103° |
| 2026-05-01 07:37 | -11.24459 | 125.37054 | 36882 ft | 447 kts | 103° |
| 2026-05-01 07:38 | -11.25799 | 125.43241 | 36880 ft | 447 kts | 103° |
| 2026-05-01 07:39 | -11.27799 | 125.52487 | 36882 ft | 448 kts | 103° |
| 2026-05-01 07:39 | -11.29809 | 125.61788 | 36886 ft | 448 kts | 103° |
| 2026-05-01 07:40 | -11.31154 | 125.67990 | 36884 ft | 448 kts | 103° |
| 2026-05-01 07:40 | -11.32486 | 125.74201 | 36887 ft | 449 kts | 103° |
| 2026-05-01 07:41 | -11.33821 | 125.80409 | 36887 ft | 448 kts | 103° |
| 2026-05-01 07:42 | -11.35827 | 125.89719 | 36884 ft | 448 kts | 103° |
| 2026-05-01 07:42 | -11.37159 | 125.95921 | 36882 ft | 448 kts | 103° |
| 2026-05-01 07:43 | -11.38488 | 126.02123 | 36880 ft | 448 kts | 103° |
| 2026-05-01 07:43 | -11.40481 | 126.11433 | 36880 ft | 448 kts | 102° |
| 2026-05-01 07:44 | -11.43138 | 126.23863 | 36878 ft | 449 kts | 103° |
| 2026-05-01 07:45 | -11.44472 | 126.30082 | 36880 ft | 449 kts | 102° |
| 2026-05-01 07:45 | -11.45797 | 126.36302 | 36882 ft | 449 kts | 102° |
| 2026-05-01 07:46 | -11.47114 | 126.42525 | 36883 ft | 449 kts | 102° |
| 2026-05-01 07:47 | -11.49106 | 126.51857 | 36884 ft | 449 kts | 103° |
| 2026-05-01 07:47 | -11.50429 | 126.58079 | 36886 ft | 449 kts | 102° |
| 2026-05-01 07:48 | -11.51838 | 126.67494 | 36889 ft | 449 kts | 90° |
| 2026-05-01 07:48 | -11.51844 | 126.73864 | 36890 ft | 449 kts | 90° |
| 2026-05-01 07:49 | -11.51888 | 126.83377 | 36886 ft | 449 kts | 90° |
| 2026-05-01 07:50 | -11.51918 | 126.89747 | 36889 ft | 449 kts | 90° |
| 2026-05-01 07:50 | -11.51947 | 126.99302 | 36885 ft | 450 kts | 90° |
| 2026-05-01 07:51 | -11.51970 | 127.05680 | 36888 ft | 450 kts | 90° |
| 2026-05-01 07:52 | -11.51995 | 127.15239 | 36890 ft | 450 kts | 90° |
| 2026-05-01 07:52 | -11.52004 | 127.21613 | 36891 ft | 450 kts | 90° |
| 2026-05-01 07:53 | -11.52031 | 127.31187 | 36889 ft | 450 kts | 90° |
| 2026-05-01 07:53 | -11.52051 | 127.37569 | 36892 ft | 450 kts | 90° |
| 2026-05-01 07:55 | -11.52067 | 127.53535 | 36888 ft | 451 kts | 90° |
| 2026-05-01 07:56 | -11.52091 | 127.69522 | 36892 ft | 451 kts | 90° |
| 2026-05-01 07:57 | -11.52095 | 127.79110 | 36891 ft | 451 kts | 90° |
| 2026-05-01 07:58 | -11.52096 | 127.91905 | 36889 ft | 451 kts | 90° |
| 2026-05-01 07:59 | -11.52096 | 128.04662 | 36892 ft | 451 kts | 90° |
| 2026-05-01 08:00 | -11.52075 | 128.23856 | 36897 ft | 451 kts | 90° |
| 2026-05-01 08:01 | -11.52064 | 128.36653 | 36904 ft | 451 kts | 90° |
| 2026-05-01 08:02 | -11.52047 | 128.46258 | 36901 ft | 451 kts | 90° |
| 2026-05-01 08:03 | -11.52025 | 128.55857 | 36904 ft | 451 kts | 90° |
| 2026-05-01 08:03 | -11.51999 | 128.65461 | 36899 ft | 452 kts | 90° |
| 2026-05-01 08:04 | -11.51963 | 128.78256 | 36902 ft | 451 kts | 90° |
| 2026-05-01 08:05 | -11.51933 | 128.87838 | 36911 ft | 450 kts | 90° |
| 2026-05-01 08:06 | -11.51908 | 128.97385 | 36682 ft | 450 kts | 90° |
| 2026-05-01 08:06 | -11.51878 | 129.03759 | 36182 ft | 448 kts | 90° |
| 2026-05-01 08:07 | -11.51857 | 129.10121 | 35278 ft | 444 kts | 90° |
| 2026-05-01 08:07 | -11.51833 | 129.16337 | 34335 ft | 439 kts | 90° |
| 2026-05-01 08:08 | -11.51819 | 129.19445 | 33851 ft | 437 kts | 90° |
| 2026-05-01 08:08 | -11.51787 | 129.25617 | 32881 ft | 434 kts | 89° |
| 2026-05-01 08:09 | -11.51753 | 129.31736 | 31917 ft | 429 kts | 90° |
| 2026-05-01 08:09 | -11.51740 | 129.34778 | 31445 ft | 428 kts | 90° |
| 2026-05-01 08:09 | -11.51732 | 129.36780 | 31141 ft | 426 kts | 90° |
| 2026-05-01 08:10 | -11.51697 | 129.43815 | 30073 ft | 422 kts | 89° |
| 2026-05-01 08:10 | -11.51669 | 129.48769 | 29339 ft | 419 kts | 89° |
| 2026-05-01 08:11 | -11.51640 | 129.54676 | 28480 ft | 414 kts | 90° |
| 2026-05-01 08:11 | -11.51610 | 129.60515 | 27649 ft | 410 kts | 89° |
| 2026-05-01 08:12 | -11.51575 | 129.66300 | 26804 ft | 406 kts | 90° |
| 2026-05-01 08:12 | -11.51557 | 129.69172 | 26374 ft | 405 kts | 90° |
| 2026-05-01 08:12 | -11.51519 | 129.74893 | 25506 ft | 402 kts | 90° |
| 2026-05-01 08:13 | -11.51501 | 129.77743 | 25055 ft | 402 kts | 90° |
| 2026-05-01 08:13 | -11.51485 | 129.80573 | 24606 ft | 396 kts | 90° |
| 2026-05-01 08:13 | -11.51459 | 129.86063 | 23707 ft | 379 kts | 92° |
| 2026-05-01 08:14 | -11.51841 | 129.88687 | 23255 ft | 370 kts | 106° |
| 2026-05-01 08:14 | -11.52818 | 129.91073 | 22826 ft | 362 kts | 120° |
| 2026-05-01 08:14 | -11.54309 | 129.93106 | 22398 ft | 355 kts | 134° |
| 2026-05-01 08:14 | -11.56137 | 129.94758 | 21974 ft | 348 kts | 139° |
| 2026-05-01 08:15 | -11.57966 | 129.96338 | 21555 ft | 341 kts | 139° |
| 2026-05-01 08:15 | -11.61522 | 129.99435 | 20746 ft | 334 kts | 139° |
| 2026-05-01 08:15 | -11.63286 | 130.00977 | 20334 ft | 334 kts | 138° |
| 2026-05-01 08:16 | -11.65051 | 130.02521 | 19921 ft | 334 kts | 138° |
| 2026-05-01 08:16 | -11.66814 | 130.04062 | 19513 ft | 334 kts | 138° |
| 2026-05-01 08:16 | -11.68578 | 130.05604 | 19091 ft | 333 kts | 138° |
| 2026-05-01 08:16 | -11.70335 | 130.07143 | 18675 ft | 333 kts | 138° |
| 2026-05-01 08:17 | -11.72096 | 130.08683 | 18256 ft | 333 kts | 138° |
| 2026-05-01 08:17 | -11.73851 | 130.10216 | 17840 ft | 332 kts | 138° |
| 2026-05-01 08:17 | -11.75605 | 130.11747 | 17431 ft | 332 kts | 138° |
| 2026-05-01 08:17 | -11.77358 | 130.13275 | 17012 ft | 331 kts | 138° |
| 2026-05-01 08:18 | -11.79107 | 130.14800 | 16590 ft | 330 kts | 139° |
| 2026-05-01 08:18 | -11.82569 | 130.17821 | 15781 ft | 329 kts | 139° |
| 2026-05-01 08:19 | -11.86042 | 130.20849 | 14961 ft | 327 kts | 139° |
| 2026-05-01 08:19 | -11.87771 | 130.22357 | 14556 ft | 327 kts | 139° |
| 2026-05-01 08:19 | -11.89496 | 130.23861 | 14156 ft | 325 kts | 139° |
| 2026-05-01 08:19 | -11.91215 | 130.25360 | 13755 ft | 324 kts | 139° |
| 2026-05-01 08:20 | -11.92921 | 130.26850 | 13355 ft | 323 kts | 139° |
| 2026-05-01 08:20 | -11.94624 | 130.28339 | 12962 ft | 321 kts | 139° |
| 2026-05-01 08:20 | -11.96316 | 130.29817 | 12569 ft | 320 kts | 139° |
| 2026-05-01 08:20 | -11.98002 | 130.31290 | 12177 ft | 318 kts | 139° |
| 2026-05-01 08:21 | -11.99682 | 130.32760 | 11781 ft | 317 kts | 139° |
| 2026-05-01 08:21 | -12.01348 | 130.34221 | 11385 ft | 315 kts | 139° |
| 2026-05-01 08:21 | -12.03009 | 130.35675 | 10986 ft | 314 kts | 139° |
| 2026-05-01 08:21 | -12.04664 | 130.37122 | 10602 ft | 313 kts | 139° |
| 2026-05-01 08:22 | -12.06312 | 130.38562 | 10211 ft | 311 kts | 139° |
| 2026-05-01 08:22 | -12.07940 | 130.39985 | 10023 ft | 302 kts | 139° |
| 2026-05-01 08:22 | -12.09513 | 130.41364 | 9741 ft | 295 kts | 138° |
| 2026-05-01 08:22 | -12.11069 | 130.42726 | 9214 ft | 292 kts | 139° |
| 2026-05-01 08:23 | -12.12594 | 130.44059 | 8823 ft | 285 kts | 139° |
| 2026-05-01 08:23 | -12.14080 | 130.45359 | 8475 ft | 277 kts | 138° |
| 2026-05-01 08:23 | -12.15523 | 130.46622 | 8136 ft | 271 kts | 138° |
| 2026-05-01 08:23 | -12.16953 | 130.47876 | 7794 ft | 271 kts | 138° |
| 2026-05-01 08:24 | -12.18385 | 130.49139 | 7451 ft | 272 kts | 138° |
| 2026-05-01 08:24 | -12.19818 | 130.50399 | 7113 ft | 271 kts | 138° |
| 2026-05-01 08:24 | -12.21247 | 130.51651 | 6770 ft | 270 kts | 138° |
| 2026-05-01 08:24 | -12.22655 | 130.52923 | 6428 ft | 270 kts | 132° |
| 2026-05-01 08:25 | -12.23812 | 130.54418 | 6089 ft | 267 kts | 124° |
| 2026-05-01 08:25 | -12.24883 | 130.55933 | 5761 ft | 266 kts | 125° |
| 2026-05-01 08:25 | -12.25972 | 130.57464 | 5423 ft | 266 kts | 125° |
| 2026-05-01 08:25 | -12.27061 | 130.58991 | 5085 ft | 265 kts | 125° |
| 2026-05-01 08:26 | -12.28151 | 130.60517 | 4749 ft | 265 kts | 125° |
| 2026-05-01 08:26 | -12.29251 | 130.62057 | 4407 ft | 264 kts | 125° |
| 2026-05-01 08:26 | -12.30322 | 130.63556 | 4077 ft | 264 kts | 125° |
| 2026-05-01 08:26 | -12.31405 | 130.65072 | 3778 ft | 263 kts | 125° |
| 2026-05-01 08:27 | -12.32460 | 130.66548 | 3703 ft | 252 kts | 125° |
| 2026-05-01 08:27 | -12.33469 | 130.67965 | 3603 ft | 241 kts | 125° |
| 2026-05-01 08:27 | -12.34433 | 130.69319 | 3507 ft | 229 kts | 124° |
| 2026-05-01 08:27 | -12.35355 | 130.70618 | 3403 ft | 223 kts | 124° |
| 2026-05-01 08:28 | -12.36068 | 130.71997 | 3255 ft | 217 kts | 108° |
| 2026-05-01 08:28 | -12.36551 | 130.73457 | 2930 ft | 217 kts | 108° |
| 2026-05-01 08:28 | -12.37037 | 130.74909 | 2637 ft | 215 kts | 108° |
| 2026-05-01 08:28 | -12.37520 | 130.76340 | 2346 ft | 208 kts | 108° |
| 2026-05-01 08:29 | -12.37982 | 130.77709 | 2074 ft | 200 kts | 108° |
| 2026-05-01 08:29 | -12.38422 | 130.79018 | 1846 ft | 188 kts | 108° |
| 2026-05-01 08:29 | -12.38835 | 130.80247 | 1574 ft | 178 kts | 108° |
| 2026-05-01 08:29 | -12.39226 | 130.81410 | 1326 ft | 166 kts | 108° |
| 2026-05-01 08:30 | -12.39588 | 130.82484 | 1111 ft | 154 kts | 107° |
| 2026-05-01 08:30 | -12.39930 | 130.83506 | 882 ft | 150 kts | 107° |
| 2026-05-01 08:30 | -12.40256 | 130.84506 | 590 ft | 147 kts | 107° |
| 2026-05-01 08:30 | -12.40589 | 130.85493 | 353 ft | 146 kts | 108° |
| 2026-05-01 08:31 | -12.40919 | 130.86475 | 156 ft | 146 kts | 107° |
| 2026-05-01 08:31 | -12.41230 | 130.87400 | 100 ft | 121 kts | 109° |
| 2026-05-01 08:31 | -12.41450 | 130.88045 | 94 ft | 71 kts | 109° |
| 2026-05-01 08:31 | -12.41556 | 130.88360 | 92 ft | 22 kts | 109° |
| 2026-05-01 08:32 | -12.41611 | 130.88434 | 94 ft | 13 kts | 154° |
| 2026-05-01 08:32 | -12.41705 | 130.88424 | 92 ft | 14 kts | 199° |
| 2026-05-01 08:32 | -12.41780 | 130.88392 | 94 ft | 0 kts | 212° |